aviador You're here:

CYKF Decoded Metar

WATERLOO in ON, CANADA
Report Time2017-04-25 20:00:00
UTC Time2017-04-25 20:23:57
Flight Rules ifr IFR
Wind090° at 08 Gusting to 15 kt
W.Decomp.*RWY 08: 7.5 kt HW 2.7 kt RCW
RWY 14: 6.1 kt HW 5.1 kt LCW
W.Rank090° ranks 15
Current wind is below 090° avg. (8.2)
Visibility9999 m
Phenomena:N/A
Clouds:Overcast 005 Hf
Expected CloudBase > 800 ft AGL from Temp-Dew spread
Ceiling500 ft
Temp11°C (ISA -2)
Dew Point09°C (88% RH)
AAT7.9°C
QNH1012 hPa
Density Alt1,004 ft
Elevation1,040 ft
Report Wrong Elevation
Raw Report
CYKF 252000Z AUTO 09008G15KT 9SM OVC005 11/09 A2989 RMK SLP129=

Extra information for CYKF:More info

Metar Taf Metar & Taf Last 4 Metars F.Rules Stats Wind Profile Meteogram Temp Stats Airport Information Weather charts Add Link Nearby VenuesMetar ALERT Operation Metar Decoded Social comments